Time;durP1;ratioP1;P1;durP2;ratioP2;P2;SDS_P1;SDS_P2;PMS_P1;PMS_P2;Temp;Humidity;BMP_temperature;BMP_pressure;BME280_temperature;BME280_humidity;BME280_pressure;Samples;Min_cycle;Max_cycle;Signal;HPM_P1;HPM_P2
2022/08/19 00:01:47;;;;;;;2.40;1.10;;;20.00;80.10;;;;;;4710400;30;20411;-80
2022/08/19 00:04:29;;;;;;;2.45;1.50;;;20.00;80.20;;;;;;4718129;30;20056;-80
2022/08/19 00:06:56;;;;;;;2.60;1.38;;;20.00;80.30;;;;;;4717353;30;20060;-80
2022/08/19 00:09:24;;;;;;;1.83;1.33;;;20.00;80.30;;;;;;4703256;30;20091;-80
2022/08/19 00:11:55;;;;;;;2.67;1.55;;;20.00;80.30;;;;;;4717740;30;20052;-79
2022/08/19 00:14:24;;;;;;;3.22;1.27;;;20.00;80.30;;;;;;4718894;30;20563;-80
2022/08/19 00:16:53;;;;;;;2.40;1.25;;;20.00;80.40;;;;;;4717477;30;20500;-80
2022/08/19 00:19:22;;;;;;;2.10;1.30;;;20.00;80.50;;;;;;4717738;30;20562;-80
2022/08/19 00:21:49;;;;;;;2.08;1.20;;;20.00;80.60;;;;;;4717157;30;20099;-80
2022/08/19 00:24:16;;;;;;;3.80;1.40;;;20.00;80.70;;;;;;4717596;30;20068;-79
2022/08/19 00:26:46;;;;;;;2.25;1.52;;;20.00;80.70;;;;;;4703199;30;20056;-80
2022/08/19 00:29:16;;;;;;;2.17;1.40;;;19.90;80.70;;;;;;4717681;30;20438;-79
2022/08/19 00:31:46;;;;;;;3.13;1.60;;;19.90;80.80;;;;;;4717463;30;20049;-80
2022/08/19 00:34:14;;;;;;;2.25;1.23;;;19.90;81.00;;;;;;4716323;30;20403;-79
2022/08/19 00:36:41;;;;;;;2.63;1.67;;;19.80;80.90;;;;;;4690354;30;20107;-79
2022/08/19 00:39:09;;;;;;;3.60;1.70;;;19.80;81.10;;;;;;4717571;30;20077;-79
2022/08/19 00:41:36;;;;;;;3.10;1.73;;;19.80;81.20;;;;;;4718708;30;20053;-79
2022/08/19 00:44:13;;;;;;;3.55;1.80;;;19.80;81.30;;;;;;4717123;30;20198;-80
2022/08/19 00:46:43;;;;;;;2.55;1.67;;;19.80;81.40;;;;;;4717271;30;20507;-80
2022/08/19 00:49:14;;;;;;;1.95;1.23;;;19.80;81.40;;;;;;4721445;30;20068;-80
2022/08/19 00:51:43;;;;;;;4.18;1.58;;;19.70;81.30;;;;;;4717136;30;20065;-79
2022/08/19 00:54:11;;;;;;;3.00;1.42;;;19.70;81.40;;;;;;4717081;30;20053;-80
2022/08/19 00:56:39;;;;;;;2.22;1.55;;;19.70;81.50;;;;;;4704326;30;20155;-85
2022/08/19 00:59:08;;;;;;;2.88;1.75;;;19.60;81.50;;;;;;4700433;30;20059;-86
2022/08/19 01:01:38;;;;;;;2.42;1.42;;;19.60;81.70;;;;;;4715198;30;20473;-86
2022/08/19 01:04:05;;;;;;;2.22;1.40;;;19.60;81.80;;;;;;4717467;30;20148;-85
2022/08/19 01:06:35;;;;;;;3.13;1.80;;;19.60;81.80;;;;;;4703525;30;20056;-85
2022/08/19 01:09:02;;;;;;;2.97;1.90;;;19.50;81.90;;;;;;4717178;30;20411;-85
2022/08/19 01:11:32;;;;;;;3.75;2.13;;;19.50;82.00;;;;;;4717591;30;20048;-86
2022/08/19 01:14:00;;;;;;;3.97;2.70;;;19.50;82.10;;;;;;4719099;30;20049;-86
2022/08/19 01:16:28;;;;;;;3.47;2.53;;;19.50;82.20;;;;;;4717424;30;20089;-87
2022/08/19 01:18:56;;;;;;;3.72;2.17;;;19.40;82.20;;;;;;4717311;30;20060;-86
2022/08/19 01:21:56;;;;;;;2.97;2.10;;;19.50;82.40;;;;;;4717330;30;20076;-86
2022/08/19 01:24:24;;;;;;;2.97;2.10;;;19.50;82.30;;;;;;4707569;30;20057;-86
2022/08/19 01:26:51;;;;;;;3.75;2.25;;;19.40;82.30;;;;;;4697387;30;20059;-86
2022/08/19 01:29:19;;;;;;;4.28;2.65;;;19.50;82.40;;;;;;4702707;30;20080;-85
2022/08/19 01:31:47;;;;;;;3.22;2.03;;;19.50;82.40;;;;;;4712573;30;20052;-87
2022/08/19 01:34:14;;;;;;;3.45;2.00;;;19.50;82.40;;;;;;4689374;30;20076;-86
2022/08/19 01:36:50;;;;;;;3.95;2.08;;;19.40;82.40;;;;;;4702544;30;20045;-85
2022/08/19 01:39:22;;;;;;;3.05;1.92;;;19.40;82.50;;;;;;4716860;30;20128;-85
2022/08/19 01:41:49;;;;;;;;;;;19.40;82.60;;;;;;4704376;30;20083;-86
2022/08/19 01:44:17;;;;;;;3.08;2.00;;;19.40;82.50;;;;;;4721998;30;20013;-85
2022/08/19 01:46:47;;;;;;;3.40;2.20;;;19.40;82.60;;;;;;4719037;30;20049;-85
2022/08/19 01:49:17;;;;;;;4.45;2.60;;;19.50;82.50;;;;;;4716500;30;20060;-85
2022/08/19 01:51:45;;;;;;;4.95;2.72;;;19.50;82.40;;;;;;4716433;30;20057;-80
2022/08/19 01:54:15;;;;;;;3.60;2.28;;;19.60;82.30;;;;;;4730835;30;20083;-80
2022/08/19 01:56:59;;;;;;;3.90;2.53;;;19.70;82.20;;;;;;4716621;30;20471;-80
2022/08/19 01:59:27;;;;;;;3.67;2.20;;;19.70;82.10;;;;;;4731156;30;20056;-80
2022/08/19 02:01:54;;;;;;;4.72;2.67;;;19.70;82.00;;;;;;4717778;30;20075;-80
2022/08/19 02:04:23;;;;;;;3.53;2.28;;;19.70;82.00;;;;;;4721052;30;20135;-80
2022/08/19 02:06:50;;;;;;;3.45;2.15;;;19.80;82.10;;;;;;4697246;30;20045;-80
2022/08/19 02:09:17;;;;;;;3.78;2.20;;;19.80;82.10;;;;;;4713150;30;20049;-80
2022/08/19 02:11:44;;;;;;;3.88;2.22;;;19.70;82.00;;;;;;4716454;30;20404;-80
2022/08/19 02:14:11;;;;;;;3.67;2.35;;;19.80;82.00;;;;;;4715490;30;20061;-80
2022/08/19 02:16:40;;;;;;;3.55;2.20;;;19.80;81.90;;;;;;4712414;30;20071;-80
2022/08/19 02:19:07;;;;;;;4.57;2.22;;;19.80;81.90;;;;;;4720073;30;20104;-80
2022/08/19 02:21:35;;;;;;;3.58;2.28;;;19.90;81.90;;;;;;4698970;30;20108;-80
2022/08/19 02:24:03;;;;;;;4.28;2.35;;;19.90;81.90;;;;;;4701860;30;20470;-80
2022/08/19 02:26:31;;;;;;;4.38;2.88;;;19.90;81.90;;;;;;4712621;30;20120;-80
2022/08/19 02:28:58;;;;;;;3.70;2.10;;;19.80;81.90;;;;;;4716485;30;20079;-80
2022/08/19 02:31:27;;;;;;;4.70;2.78;;;19.70;81.90;;;;;;4715729;30;20044;-80
2022/08/19 02:33:55;;;;;;;3.53;2.47;;;19.70;82.10;;;;;;4715904;30;20045;-80
2022/08/19 02:36:24;;;;;;;3.75;2.35;;;19.70;82.20;;;;;;4707515;30;20144;-80
2022/08/19 02:38:52;;;;;;;3.30;2.10;;;19.60;82.20;;;;;;4715874;30;20510;-80
2022/08/19 02:41:24;;;;;;;3.80;2.45;;;19.60;82.40;;;;;;4717141;30;20435;-85
2022/08/19 02:43:57;;;;;;;3.38;2.10;;;19.60;82.40;;;;;;4715757;30;20103;-84
2022/08/19 02:46:49;;;;;;;2.90;1.95;;;19.50;82.40;;;;;;4696784;30;20080;-85
2022/08/19 02:49:19;;;;;;;3.03;2.17;;;19.50;82.60;;;;;;4704204;30;20090;-84
2022/08/19 02:51:50;;;;;;;6.35;3.05;;;19.40;82.60;;;;;;4723745;30;20499;-85
2022/08/19 02:54:17;;;;;;;4.00;2.47;;;19.40;82.70;;;;;;4709541;30;20057;-85
2022/08/19 02:56:46;;;;;;;5.10;2.17;;;19.30;82.70;;;;;;4686459;30;20045;-85
2022/08/19 02:59:13;;;;;;;3.67;2.38;;;19.30;82.80;;;;;;4701127;30;20049;-85
2022/08/19 03:01:42;;;;;;;3.95;2.47;;;19.20;82.70;;;;;;4701325;30;20111;-85
2022/08/19 03:04:12;;;;;;;4.95;2.50;;;19.20;82.80;;;;;;4716088;30;20432;-85
2022/08/19 03:06:41;;;;;;;4.57;2.65;;;19.10;82.90;;;;;;4698580;30;20049;-84
2022/08/19 03:09:09;;;;;;;5.03;2.42;;;19.10;83.60;;;;;;4709205;30;20049;-84
2022/08/19 03:11:37;;;;;;;3.95;2.42;;;19.10;83.10;;;;;;4700775;30;20095;-84
2022/08/19 03:14:06;;;;;;;4.78;2.60;;;19.10;83.10;;;;;;4717867;30;20059;-84
2022/08/19 03:16:40;;;;;;;4.28;2.60;;;19.00;83.10;;;;;;4702453;30;20057;-83
2022/08/19 03:19:08;;;;;;;5.03;3.03;;;18.90;83.20;;;;;;4717647;30;20497;-84
2022/08/19 03:21:35;;;;;;;4.63;2.80;;;18.90;83.30;;;;;;4707999;30;20071;-84
2022/08/19 03:24:06;;;;;;;4.25;2.53;;;18.80;83.40;;;;;;4686587;30;20454;-84
2022/08/19 03:26:34;;;;;;;3.40;2.15;;;18.80;83.40;;;;;;4715165;30;20078;-83
2022/08/19 03:29:03;;;;;;;4.80;2.22;;;18.80;83.60;;;;;;4723076;30;20057;-84
2022/08/19 03:31:32;;;;;;;4.43;2.90;;;18.70;83.60;;;;;;4715083;30;20499;-84
2022/08/19 03:34:20;;;;;;;3.92;2.30;;;18.70;83.80;;;;;;4706029;30;20061;-84
2022/08/19 03:36:48;;;;;;;4.18;2.47;;;18.70;83.90;;;;;;4714795;30;20056;-84
2022/08/19 03:39:16;;;;;;;4.18;2.30;;;18.60;83.90;;;;;;4700983;30;20072;-84
2022/08/19 03:41:45;;;;;;;3.95;2.33;;;18.60;84.00;;;;;;4715270;30;20057;-84
2022/08/19 03:44:17;;;;;;;5.32;2.58;;;18.60;84.00;;;;;;4715048;30;20135;-84
2022/08/19 03:46:51;;;;;;;4.25;2.55;;;18.60;84.00;;;;;;4710387;30;20057;-84
2022/08/19 03:49:19;;;;;;;4.72;2.50;;;18.50;84.70;;;;;;4716253;30;20523;-84
2022/08/19 03:51:48;;;;;;;5.10;2.70;;;18.50;84.10;;;;;;4693703;30;20046;-84
2022/08/19 03:54:22;;;;;;;3.70;2.17;;;18.40;84.10;;;;;;4714893;30;20049;-84
2022/08/19 03:56:53;;;;;;;5.18;3.38;;;18.40;84.20;;;;;;4703641;30;20049;-84
2022/08/19 03:59:26;;;;;;;3.63;2.30;;;18.40;84.30;;;;;;4701796;30;20049;-84
2022/08/19 04:01:56;;;;;;;3.67;2.30;;;18.40;84.30;;;;;;4722890;30;20124;-84
2022/08/19 04:04:23;;;;;;;4.38;2.53;;;18.40;84.40;;;;;;4703072;30;20058;-84
2022/08/19 04:06:55;;;;;;;5.55;2.92;;;18.30;84.40;;;;;;4701875;30;20051;-84
2022/08/19 04:09:23;;;;;;;3.78;2.35;;;18.30;84.40;;;;;;4717785;30;20060;-85
2022/08/19 04:11:55;;;;;;;5.13;2.70;;;18.30;84.50;;;;;;4689750;30;20403;-85
2022/08/19 04:14:24;;;;;;;;;;;18.40;84.60;;;;;;4718646;30;20053;-84
2022/08/19 04:16:51;;;;;;;4.38;2.83;;;18.30;84.40;;;;;;4705907;30;20335;-84
2022/08/19 04:19:19;;;;;;;5.32;2.60;;;18.30;84.70;;;;;;4707915;30;20053;-84
2022/08/19 04:21:49;;;;;;;4.25;2.67;;;18.30;84.80;;;;;;4726833;30;20049;-85
2022/08/19 04:24:17;;;;;;;4.78;2.53;;;18.30;84.80;;;;;;4718358;30;20053;-85
2022/08/19 04:26:46;;;;;;;4.82;2.67;;;18.30;84.80;;;;;;4705645;30;20049;-84
2022/08/19 04:29:21;;;;;;;4.43;2.50;;;18.30;84.80;;;;;;4686851;30;20143;-84
2022/08/19 04:31:49;;;;;;;4.28;2.50;;;18.30;84.80;;;;;;4724618;30;20076;-84
2022/08/19 04:34:23;;;;;;;4.53;2.95;;;18.30;84.80;;;;;;4703939;30;20115;-85
2022/08/19 04:36:51;;;;;;;4.72;2.50;;;18.20;84.80;;;;;;4717795;30;20053;-84
2022/08/19 04:42:38;;;;;;;5.38;2.95;;;18.20;84.80;;;;;;4706559;30;20080;-85
2022/08/19 04:45:03;;;;;;;4.43;2.78;;;18.20;84.90;;;;;;4717731;30;20061;-85
2022/08/19 04:47:36;;;;;;;3.90;2.00;;;18.10;84.90;;;;;;4700373;30;20463;-85
2022/08/19 04:50:24;;;;;;;5.90;3.17;;;18.10;85.00;;;;;;4701342;30;20392;-85
2022/08/19 04:52:52;;;;;;;3.60;2.30;;;18.10;85.10;;;;;;4703412;30;20099;-85
2022/08/19 04:55:20;;;;;;;3.88;2.45;;;18.10;85.10;;;;;;4703910;30;20080;-84
2022/08/19 04:57:50;;;;;;;3.97;2.55;;;18.10;85.10;;;;;;4703094;30;20073;-79
2022/08/19 05:00:20;;;;;;;4.72;2.85;;;18.10;85.20;;;;;;4701039;30;20059;-80
2022/08/19 05:02:49;;;;;;;4.82;2.58;;;18.10;85.20;;;;;;4705077;30;20053;-83
2022/08/19 05:05:16;;;;;;;3.35;2.20;;;18.00;85.70;;;;;;4689015;30;20503;-85
2022/08/19 05:07:43;;;;;;;4.25;2.80;;;18.00;85.10;;;;;;4703067;30;20049;-84
2022/08/19 05:10:11;;;;;;;3.90;2.25;;;18.00;85.10;;;;;;4707624;30;20048;-85
2022/08/19 05:12:38;;;;;;;4.53;2.70;;;18.00;85.10;;;;;;4723572;30;20491;-85
2022/08/19 05:15:08;;;;;;;3.63;2.30;;;18.00;85.20;;;;;;4720264;30;20045;-85
2022/08/19 05:17:35;;;;;;;4.50;2.53;;;18.00;85.20;;;;;;4724215;30;20053;-85
2022/08/19 05:22:52;;;;;;;4.93;2.47;;;18.10;85.30;;;;;;4717263;30;20084;-85
2022/08/19 05:25:21;;;;;;;4.55;2.60;;;18.10;85.20;;;;;;4688278;30;20151;-86
2022/08/19 05:27:48;;;;;;;4.90;3.20;;;18.10;85.20;;;;;;4701322;30;20058;-85
2022/08/19 05:30:16;;;;;;;4.20;2.42;;;18.10;85.20;;;;;;4706411;30;20076;-85
2022/08/19 05:33:08;;;;;;;4.70;2.97;;;18.10;85.20;;;;;;4727952;30;20155;-85
2022/08/19 05:35:37;;;;;;;4.22;2.75;;;18.20;85.20;;;;;;4706102;30;20057;-85
2022/08/19 05:38:09;;;;;;;3.83;2.35;;;18.30;85.20;;;;;;4720288;30;20052;-86
2022/08/19 05:40:37;;;;;;;4.10;2.50;;;18.30;85.10;;;;;;4719600;30;20473;-85
2022/08/19 05:43:06;;;;;;;4.78;2.53;;;18.40;85.00;;;;;;4724731;30;20789;-86
2022/08/19 05:45:38;;;;;;;4.55;2.97;;;18.50;85.00;;;;;;4698948;30;20060;-85
2022/08/19 05:48:05;;;;;;;4.40;2.60;;;18.60;84.90;;;;;;4726835;30;20143;-85
2022/08/19 05:50:32;;;;;;;4.75;2.65;;;18.60;84.80;;;;;;4719187;30;20127;-83
2022/08/19 05:52:59;;;;;;;4.75;3.00;;;18.70;84.80;;;;;;4719958;30;20486;-84
2022/08/19 05:55:26;;;;;;;3.92;2.97;;;18.80;84.80;;;;;;4706239;30;20048;-89
2022/08/19 05:57:53;;;;;;;6.00;3.45;;;18.80;84.70;;;;;;4706357;30;20143;-84
2022/08/19 06:00:20;;;;;;;5.25;3.15;;;18.90;84.70;;;;;;4703488;30;20118;-86
2022/08/19 06:02:52;;;;;;;6.38;4.00;;;19.00;84.50;;;;;;4716494;30;20057;-85
2022/08/19 06:05:19;;;;;;;5.38;3.30;;;19.10;84.50;;;;;;4703757;30;20140;-84
2022/08/19 06:07:47;;;;;;;4.85;3.38;;;19.20;84.40;;;;;;4692921;30;20056;-85
2022/08/19 06:10:14;;;;;;;7.13;4.70;;;19.30;84.30;;;;;;4704971;30;20131;-85
2022/08/19 06:12:41;;;;;;;8.77;5.80;;;19.40;84.30;;;;;;4715847;30;20699;-85
2022/08/19 06:15:11;;;;;;;8.45;5.70;;;19.50;84.40;;;;;;4718588;30;20147;-85
2022/08/19 06:17:38;;;;;;;9.43;6.32;;;19.50;84.40;;;;;;4718489;30;20080;-83
2022/08/19 06:20:08;;;;;;;10.48;6.88;;;19.60;84.50;;;;;;4722465;30;20502;-83
2022/08/19 06:22:44;;;;;;;9.80;7.00;;;19.60;84.60;;;;;;4718577;30;20055;-84
2022/08/19 06:25:13;;;;;;;11.50;7.40;;;19.70;84.70;;;;;;4719528;30;20110;-83
2022/08/19 06:27:41;;;;;;;9.38;7.38;;;19.70;84.60;;;;;;4697989;30;20560;-82
2022/08/19 06:30:29;;;;;;;9.60;6.13;;;19.80;84.70;;;;;;4703793;30;20052;-83
2022/08/19 06:32:56;;;;;;;9.65;6.30;;;19.90;84.70;;;;;;4697275;30;20040;-79
2022/08/19 06:35:23;;;;;;;10.95;8.02;;;19.90;84.50;;;;;;4704113;30;20052;-82
2022/08/19 06:37:50;;;;;;;11.88;8.15;;;20.00;84.70;;;;;;4704329;30;20127;-83
2022/08/19 06:40:17;;;;;;;14.32;9.85;;;20.10;84.80;;;;;;4720773;30;20053;-80
2022/08/19 06:42:44;;;;;;;11.75;8.90;;;20.10;84.80;;;;;;4725781;30;20067;-83
2022/08/19 06:45:20;;;;;;;12.00;8.32;;;20.20;84.80;;;;;;4696010;30;20045;-86
2022/08/19 06:47:55;;;;;;;14.18;9.70;;;20.30;84.80;;;;;;4700707;30;20111;-82
2022/08/19 06:50:23;;;;;;;16.77;10.10;;;20.40;85.00;;;;;;4714911;30;20068;-84
2022/08/19 06:52:51;;;;;;;17.65;11.55;;;20.50;84.90;;;;;;4689822;30;20596;-83
2022/08/19 06:55:19;;;;;;;19.00;12.05;;;20.50;84.80;;;;;;4689442;30;20072;-84
2022/08/19 06:57:47;;;;;;;19.70;12.27;;;20.60;84.80;;;;;;4703805;30;20040;-83
2022/08/19 07:00:15;;;;;;;21.73;13.50;;;20.60;84.70;;;;;;4703627;30;20057;-86
2022/08/19 07:02:45;;;;;;;31.17;18.50;;;20.70;84.80;;;;;;4717643;30;20066;-83
2022/08/19 07:05:24;;;;;;;23.92;14.73;;;20.60;84.90;;;;;;4709342;30;20048;-82
2022/08/19 07:07:51;;;;;;;26.08;16.27;;;20.60;84.90;;;;;;4688700;30;20048;-81
2022/08/19 07:10:19;;;;;;;24.17;14.60;;;20.60;85.00;;;;;;4704864;30;20132;-84
2022/08/19 07:12:47;;;;;;;31.35;18.05;;;20.60;85.00;;;;;;4708541;30;20052;-82
2022/08/19 07:15:15;;;;;;;36.72;18.92;;;20.60;85.00;;;;;;4717840;30;20052;-83
2022/08/19 07:17:44;;;;;;;35.55;19.75;;;20.70;85.00;;;;;;4703684;30;20494;-81
2022/08/19 07:20:15;;;;;;;35.58;19.77;;;20.70;85.00;;;;;;4703326;30;20051;-82
2022/08/19 07:22:45;;;;;;;34.45;19.25;;;20.70;85.10;;;;;;4703583;30;20383;-83
2022/08/19 07:25:13;;;;;;;28.60;15.23;;;20.60;85.10;;;;;;4703496;30;20064;-82
2022/08/19 07:27:39;;;;;;;32.40;17.80;;;20.70;85.00;;;;;;4717568;30;20079;-84
2022/08/19 07:30:08;;;;;;;29.85;15.95;;;20.70;84.80;;;;;;4716450;30;20066;-83
2022/08/19 07:32:38;;;;;;;23.80;13.90;;;20.80;84.70;;;;;;4723574;30;20049;-83
2022/08/19 07:35:06;;;;;;;33.00;18.38;;;20.90;84.50;;;;;;4711542;30;20161;-83
2022/08/19 07:37:35;;;;;;;31.48;18.10;;;20.90;84.30;;;;;;4689104;30;20488;-82
2022/08/19 07:40:04;;;;;;;29.75;18.48;;;20.90;84.20;;;;;;4713144;30;20474;-82
2022/08/19 07:42:32;;;;;;;31.67;18.00;;;21.00;84.20;;;;;;4718725;30;20408;-85
2022/08/19 07:44:59;;;;;;;30.10;17.30;;;21.00;84.00;;;;;;4707065;30;20673;-83
2022/08/19 07:47:28;;;;;;;38.38;21.20;;;21.00;84.00;;;;;;4706924;30;20048;-82
2022/08/19 07:50:18;;;;;;;34.53;19.88;;;21.00;83.90;;;;;;4709107;30;20052;-81
2022/08/19 07:52:46;;;;;;;35.05;20.42;;;21.00;83.80;;;;;;4706991;30;20514;-83
2022/08/19 07:55:20;;;;;;;38.17;21.52;;;21.00;83.70;;;;;;4720205;30;20064;-83
2022/08/19 07:58:07;;;;;;;29.25;17.83;;;21.00;83.70;;;;;;4729005;30;20127;-82
2022/08/19 08:00:35;;;;;;;30.95;17.42;;;21.20;83.60;;;;;;4717771;30;20157;-82
2022/08/19 08:03:02;;;;;;;26.63;15.88;;;21.30;83.20;;;;;;4721018;30;20139;-83
2022/08/19 08:11:00;;;;;;;39.15;22.88;;;21.70;82.60;;;;;;4708111;30;20056;-83
2022/08/19 08:13:27;;;;;;;40.33;22.77;;;21.60;81.90;;;;;;4706206;30;20076;-82
2022/08/19 08:15:56;;;;;;;32.45;19.48;;;21.60;82.10;;;;;;4736490;30;20414;-82
2022/08/19 08:18:24;;;;;;;26.05;16.73;;;21.70;82.10;;;;;;4729102;30;20044;-82
2022/08/19 08:20:57;;;;;;;30.20;17.80;;;21.80;81.80;;;;;;4728816;30;20052;-82
2022/08/19 08:23:25;;;;;;;26.00;16.40;;;22.00;81.60;;;;;;4733770;30;20048;-82
2022/08/19 08:25:58;;;;;;;24.13;17.30;;;22.20;81.20;;;;;;4698705;30;20052;-82
2022/08/19 08:28:27;;;;;;;22.92;16.05;;;22.40;80.80;;;;;;4717478;30;20118;-82
2022/08/19 08:30:57;;;;;;;22.08;15.02;;;22.50;80.40;;;;;;4718387;30;20041;-82
2022/08/19 08:33:26;;;;;;;22.75;16.13;;;22.60;80.30;;;;;;4702584;30;20061;-83
2022/08/19 08:36:06;;;;;;;29.75;20.15;;;22.60;80.10;;;;;;4715357;30;20064;-83
2022/08/19 08:38:36;;;;;;;31.17;19.88;;;22.50;79.90;;;;;;4701723;30;20066;-83
2022/08/19 08:41:29;;;;;;;27.50;19.30;;;22.40;80.00;;;;;;4699915;30;20053;-81
2022/08/19 08:43:58;;;;;;;25.85;17.80;;;22.30;80.00;;;;;;4690992;30;20049;-83
2022/08/19 08:46:41;;;;;;;28.42;19.45;;;22.30;79.90;;;;;;4704380;30;20136;-83
2022/08/19 08:49:44;;;;;;;21.85;15.77;;;22.40;79.30;;;;;;4716126;30;20380;-78
2022/08/19 08:52:19;;;;;;;23.08;15.90;;;22.50;79.00;;;;;;4711869;30;20060;-78
2022/08/19 08:54:50;;;;;;;21.50;15.73;;;22.60;78.40;;;;;;4716268;30;20057;-78
2022/08/19 08:57:43;;;;;;;24.15;15.13;;;22.70;77.90;;;;;;4704577;30;20115;-78
2022/08/19 09:00:18;;;;;;;24.08;16.42;;;22.70;78.10;;;;;;4697429;30;20755;-78
2022/08/19 09:02:45;;;;;;;17.13;12.70;;;22.80;77.00;;;;;;4701528;30;20061;-79
2022/08/19 09:05:19;;;;;;;21.02;14.23;;;22.90;77.00;;;;;;4714521;30;20103;-78
2022/08/19 09:07:55;;;;;;;18.55;13.10;;;23.00;76.60;;;;;;4708547;30;20062;-78
2022/08/19 09:10:37;;;;;;;15.70;11.18;;;23.10;76.60;;;;;;4714385;30;20718;-78
2022/08/19 09:13:17;;;;;;;13.95;9.82;;;23.40;76.40;;;;;;4715223;30;20069;-78
2022/08/19 09:15:54;;;;;;;24.65;15.20;;;23.50;76.10;;;;;;4716995;30;20053;-78
2022/08/19 09:18:21;;;;;;;23.60;15.07;;;23.60;75.00;;;;;;4717724;30;20554;-78
2022/08/19 09:20:52;;;;;;;22.05;14.32;;;23.50;74.70;;;;;;4694951;30;20037;-78
2022/08/19 09:23:20;;;;;;;18.23;12.95;;;23.60;74.50;;;;;;4697791;30;20045;-78
2022/08/19 09:25:53;;;;;;;19.25;13.38;;;23.60;74.40;;;;;;4689980;30;20065;-78
2022/08/19 09:28:20;;;;;;;21.85;15.68;;;23.70;73.90;;;;;;4731050;30;20388;-78
2022/08/19 09:30:53;;;;;;;22.58;16.40;;;23.80;73.50;;;;;;4703776;30;20044;-78
2022/08/19 09:33:20;;;;;;;22.40;15.27;;;23.80;73.30;;;;;;4670931;30;20145;-78
2022/08/19 09:35:47;;;;;;;17.85;12.63;;;23.90;73.10;;;;;;4698879;30;20112;-78
2022/08/19 09:38:19;;;;;;;;;;;24.00;72.90;;;;;;4699335;30;20396;-78
2022/08/19 09:40:46;;;;;;;16.83;12.07;;;24.00;72.50;;;;;;4698693;30;20436;-77
2022/08/19 09:43:13;;;;;;;17.27;11.07;;;24.10;72.90;;;;;;4698540;30;20076;-78
2022/08/19 09:46:00;;;;;;;18.00;11.98;;;24.20;72.70;;;;;;4683793;30;20599;-77
2022/08/19 09:48:27;;;;;;;18.95;13.00;;;24.20;72.50;;;;;;4700645;30;20076;-76
2022/08/19 09:50:54;;;;;;;18.08;13.35;;;24.20;72.40;;;;;;4668696;30;20056;-77
2022/08/19 09:53:22;;;;;;;20.92;14.68;;;24.20;72.50;;;;;;4706305;30;20065;-77
2022/08/19 09:55:52;;;;;;;18.00;13.48;;;24.10;72.30;;;;;;4698475;30;20049;-77
2022/08/19 09:58:18;;;;;;;21.25;14.13;;;24.00;72.50;;;;;;4704218;30;20535;-77
2022/08/19 10:00:53;;;;;;;18.83;13.30;;;23.90;72.40;;;;;;4704215;30;20045;-77
2022/08/19 10:03:20;;;;;;;20.30;13.30;;;23.90;72.30;;;;;;4706360;30;20053;-77
2022/08/19 10:05:52;;;;;;;15.05;10.85;;;23.90;72.10;;;;;;4700653;30;20058;-77
2022/08/19 10:08:31;;;;;;;19.17;12.10;;;23.90;72.10;;;;;;4705420;30;20104;-79
2022/08/19 10:11:00;;;;;;;14.73;10.25;;;23.90;72.00;;;;;;4695406;30;20064;-78
2022/08/19 10:13:48;;;;;;;13.00;9.38;;;24.00;71.80;;;;;;4672270;30;20420;-79
2022/08/19 10:16:21;;;;;;;13.18;8.52;;;24.10;71.40;;;;;;4702482;30;20136;-78
2022/08/19 10:18:53;;;;;;;14.70;9.70;;;24.20;71.00;;;;;;4718518;30;20149;-78
2022/08/19 10:21:28;;;;;;;10.32;7.35;;;24.30;70.80;;;;;;4699120;30;20056;-79
2022/08/19 10:24:03;;;;;;;10.38;7.78;;;24.40;70.80;;;;;;4688552;30;20457;-79
2022/08/19 10:26:37;;;;;;;9.27;6.55;;;24.60;70.40;;;;;;4701903;30;20068;-79
2022/08/19 10:29:05;;;;;;;11.68;7.40;;;24.70;70.30;;;;;;4698176;30;20480;-78
2022/08/19 10:31:35;;;;;;;14.90;8.43;;;24.90;69.70;;;;;;4697666;30;20065;-78
2022/08/19 10:34:22;;;;;;;14.93;10.05;;;25.10;68.70;;;;;;4705643;30;20076;-78
2022/08/19 10:36:54;;;;;;;13.50;9.55;;;25.20;67.70;;;;;;4688460;30;20483;-80
2022/08/19 10:39:31;;;;;;;13.80;9.85;;;25.30;67.50;;;;;;4701445;30;20056;-78
2022/08/19 10:42:12;;;;;;;14.95;10.05;;;25.40;67.00;;;;;;4701880;30;20168;-79
2022/08/19 10:44:41;;;;;;;14.40;9.80;;;25.50;66.40;;;;;;4702672;30;20502;-77
2022/08/19 10:47:08;;;;;;;15.15;9.68;;;25.60;66.00;;;;;;4718542;30;20292;-79
2022/08/19 10:52:44;;;;;;;16.75;11.00;;;26.00;65.20;;;;;;4703453;30;20064;-80
2022/08/19 10:58:09;;;;;;;16.92;9.88;;;26.10;64.80;;;;;;4717097;30;20072;-81
2022/08/19 11:00:37;;;;;;;15.52;9.52;;;26.30;64.10;;;;;;4715169;30;20049;-79
2022/08/19 11:03:04;;;;;;;12.70;8.32;;;26.40;63.90;;;;;;4714817;30;20118;-77
2022/08/19 11:05:31;;;;;;;11.55;7.75;;;26.60;63.80;;;;;;4714773;30;20061;-78
2022/08/19 11:08:11;;;;;;;12.23;6.88;;;26.80;63.40;;;;;;4701589;30;20452;-78
2022/08/19 11:10:53;;;;;;;14.73;9.23;;;27.10;63.10;;;;;;4703261;30;20499;-76
2022/08/19 11:13:21;;;;;;;11.20;7.90;;;26.60;63.20;;;;;;4699361;30;20060;-76
2022/08/19 11:16:03;;;;;;;11.13;7.30;;;26.00;64.50;;;;;;4718994;30;20073;-76
2022/08/19 11:18:36;;;;;;;14.07;8.18;;;25.70;65.50;;;;;;4714121;30;20173;-75
2022/08/19 11:21:11;;;;;;;12.55;9.10;;;25.50;66.00;;;;;;4721824;30;20409;-75
2022/08/19 11:23:38;;;;;;;10.98;6.80;;;25.40;66.10;;;;;;4718567;30;20083;-75
2022/08/19 11:26:06;;;;;;;8.75;6.15;;;25.40;66.60;;;;;;4703110;30;20070;-75
2022/08/19 11:28:33;;;;;;;8.90;5.55;;;25.50;66.50;;;;;;4728120;30;20149;-75
2022/08/19 11:31:00;;;;;;;12.68;7.35;;;26.30;65.60;;;;;;4724815;30;20465;-75
2022/08/19 11:33:27;;;;;;;13.93;9.32;;;26.60;63.90;;;;;;4711248;30;20542;-75
2022/08/19 11:35:54;;;;;;;13.93;9.98;;;26.60;63.10;;;;;;4707758;30;20111;-75
2022/08/19 11:38:21;;;;;;;13.88;8.65;;;26.60;62.90;;;;;;4722239;30;20514;-75
2022/08/19 11:41:05;;;;;;;10.75;7.00;;;26.50;62.50;;;;;;4708059;30;20073;-74
2022/08/19 11:43:32;;;;;;;13.20;6.70;;;26.10;63.30;;;;;;4717332;30;20053;-75
2022/08/19 11:46:09;;;;;;;10.27;6.50;;;26.60;63.00;;;;;;4719435;30;20561;-75
2022/08/19 11:48:38;;;;;;;10.43;7.65;;;27.10;61.80;;;;;;4720736;30;20056;-76
2022/08/19 11:51:11;;;;;;;8.90;6.07;;;27.50;61.10;;;;;;4718812;30;20073;-75
2022/08/19 11:53:39;;;;;;;10.10;6.30;;;27.80;60.40;;;;;;4721501;30;20056;-75
2022/08/19 11:56:08;;;;;;;10.63;6.90;;;28.00;59.90;;;;;;4715482;30;20136;-75
2022/08/19 11:58:36;;;;;;;9.48;5.90;;;28.20;59.60;;;;;;4723197;30;20060;-75
2022/08/19 12:01:08;;;;;;;9.93;6.80;;;28.50;59.30;;;;;;4710192;30;20848;-76
2022/08/19 12:03:35;;;;;;;12.23;7.50;;;28.60;58.80;;;;;;4718758;30;20106;-76
2022/08/19 12:06:15;;;;;;;10.48;7.47;;;28.70;58.40;;;;;;4703454;30;20049;-76
2022/08/19 12:08:43;;;;;;;9.65;7.00;;;28.80;58.40;;;;;;4715111;30;20060;-76
2022/08/19 12:11:12;;;;;;;9.88;6.00;;;28.80;58.40;;;;;;4728802;30;20132;-76
2022/08/19 12:13:39;;;;;;;8.60;6.25;;;28.50;58.50;;;;;;4721538;30;20045;-76
2022/08/19 12:16:12;;;;;;;8.60;6.80;;;27.90;59.50;;;;;;4726069;30;20053;-76
2022/08/19 12:18:45;;;;;;;9.10;6.60;;;27.40;60.00;;;;;;4699782;30;20066;-76
2022/08/19 12:21:20;;;;;;;10.15;7.32;;;27.00;60.80;;;;;;4714676;30;20049;-76
2022/08/19 12:23:49;;;;;;;11.98;7.68;;;26.70;61.30;;;;;;4716446;30;20049;-76
2022/08/19 12:26:22;;;;;;;10.18;7.15;;;26.50;61.80;;;;;;4718599;30;20045;-85
2022/08/19 12:28:49;;;;;;;11.00;7.93;;;26.40;62.00;;;;;;4717275;30;20141;-84
2022/08/19 12:31:19;;;;;;;12.05;9.38;;;26.30;62.20;;;;;;4716770;30;20416;-83
2022/08/19 12:33:46;;;;;;;10.23;8.52;;;26.20;62.10;;;;;;4707997;30;20068;-84
2022/08/19 12:36:15;;;;;;;10.65;8.80;;;26.20;62.30;;;;;;4717866;30;20057;-82
2022/08/19 12:38:43;;;;;;;10.82;8.05;;;26.20;62.40;;;;;;4703097;30;20038;-82
2022/08/19 12:41:13;;;;;;;11.00;7.93;;;26.20;62.50;;;;;;4717792;30;20088;-82
2022/08/19 12:43:41;;;;;;;8.60;7.45;;;26.20;62.50;;;;;;4717680;30;20053;-82
2022/08/19 12:46:09;;;;;;;9.93;7.40;;;26.20;62.60;;;;;;4718682;30;20109;-81
2022/08/19 12:48:41;;;;;;;9.98;7.28;;;26.30;62.70;;;;;;4710709;30;20068;-82
2022/08/19 12:51:11;;;;;;;10.18;7.28;;;26.40;62.50;;;;;;4698732;30;20053;-81
2022/08/19 12:53:39;;;;;;;9.88;7.00;;;26.50;62.50;;;;;;4718513;30;20041;-80
2022/08/19 12:56:07;;;;;;;9.77;8.00;;;26.50;62.30;;;;;;4715895;30;20049;-82
2022/08/19 12:58:41;;;;;;;9.38;7.22;;;26.50;62.30;;;;;;4716555;30;20041;-80
2022/08/19 13:01:20;;;;;;;11.57;7.45;;;26.60;62.40;;;;;;4718334;30;20056;-82
2022/08/19 13:03:49;;;;;;;11.70;9.10;;;26.60;62.20;;;;;;4724059;30;20091;-82
2022/08/19 13:06:17;;;;;;;12.95;9.15;;;26.60;62.10;;;;;;4702552;30;20423;-79
2022/08/19 13:08:46;;;;;;;11.43;8.95;;;26.60;62.20;;;;;;4721026;30;20436;-79
2022/08/19 13:11:17;;;;;;;12.05;9.50;;;26.50;62.20;;;;;;4709686;30;20118;-79
2022/08/19 13:13:46;;;;;;;11.00;8.43;;;26.50;62.10;;;;;;4717068;30;20048;-79
2022/08/19 13:16:14;;;;;;;14.15;10.93;;;26.50;62.10;;;;;;4702430;30;20057;-82